sensor_id;sensor_type;location;lat;lon;timestamp;pressure;altitude;pressure_sealevel;temperature;humidity
54248;BME280;40161;39.768;2.722;2023-03-04T00:01:07;101753.69;;;5.75;100.00
54248;BME280;40161;39.768;2.722;2023-03-04T00:03:32;101747.97;;;5.76;100.00
54248;BME280;40161;39.768;2.722;2023-03-04T00:05:58;101749.31;;;5.87;100.00
54248;BME280;40161;39.768;2.722;2023-03-04T00:08:23;101755.75;;;5.69;100.00
54248;BME280;40161;39.768;2.722;2023-03-04T00:10:49;101748.63;;;5.59;100.00
54248;BME280;40161;39.768;2.722;2023-03-04T00:13:15;101747.03;;;5.81;100.00
54248;BME280;40161;39.768;2.722;2023-03-04T00:15:41;101749.50;;;5.91;100.00
54248;BME280;40161;39.768;2.722;2023-03-04T00:18:06;101753.38;;;5.54;100.00
54248;BME280;40161;39.768;2.722;2023-03-04T00:20:32;101733.06;;;5.37;100.00
54248;BME280;40161;39.768;2.722;2023-03-04T00:22:57;101744.25;;;5.36;100.00
54248;BME280;40161;39.768;2.722;2023-03-04T00:25:23;101739.63;;;5.22;100.00
54248;BME280;40161;39.768;2.722;2023-03-04T00:27:48;101753.81;;;5.33;100.00
54248;BME280;40161;39.768;2.722;2023-03-04T00:30:14;101738.03;;;5.21;100.00
54248;BME280;40161;39.768;2.722;2023-03-04T00:32:40;101756.81;;;5.45;100.00
54248;BME280;40161;39.768;2.722;2023-03-04T00:35:06;101752.41;;;5.36;100.00
54248;BME280;40161;39.768;2.722;2023-03-04T00:37:32;101742.47;;;5.54;100.00
54248;BME280;40161;39.768;2.722;2023-03-04T00:39:58;101748.72;;;5.68;100.00
54248;BME280;40161;39.768;2.722;2023-03-04T00:42:23;101752.38;;;5.50;100.00
54248;BME280;40161;39.768;2.722;2023-03-04T00:44:49;101739.13;;;5.34;100.00
54248;BME280;40161;39.768;2.722;2023-03-04T00:47:15;101733.34;;;5.36;100.00
54248;BME280;40161;39.768;2.722;2023-03-04T00:49:41;101736.81;;;5.28;100.00
54248;BME280;40161;39.768;2.722;2023-03-04T00:52:06;101736.91;;;5.22;100.00
54248;BME280;40161;39.768;2.722;2023-03-04T00:54:32;101745.88;;;5.37;100.00
54248;BME280;40161;39.768;2.722;2023-03-04T00:56:57;101749.38;;;5.51;100.00
54248;BME280;40161;39.768;2.722;2023-03-04T00:59:23;101729.88;;;5.58;100.00
54248;BME280;40161;39.768;2.722;2023-03-04T01:01:48;101728.16;;;5.62;100.00
54248;BME280;40161;39.768;2.722;2023-03-04T01:04:14;101741.72;;;5.39;100.00
54248;BME280;40161;39.768;2.722;2023-03-04T01:06:39;101723.19;;;5.28;100.00
54248;BME280;40161;39.768;2.722;2023-03-04T01:09:05;101683.22;;;5.00;100.00
54248;BME280;40161;39.768;2.722;2023-03-04T01:11:31;101734.28;;;5.31;100.00
54248;BME280;40161;39.768;2.722;2023-03-04T01:13:56;101729.69;;;5.54;100.00
54248;BME280;40161;39.768;2.722;2023-03-04T01:16:22;101725.03;;;5.55;100.00
54248;BME280;40161;39.768;2.722;2023-03-04T01:18:47;101732.16;;;5.28;100.00
54248;BME280;40161;39.768;2.722;2023-03-04T01:21:13;101730.16;;;5.34;100.00
54248;BME280;40161;39.768;2.722;2023-03-04T01:23:38;101733.53;;;5.39;100.00
54248;BME280;40161;39.768;2.722;2023-03-04T01:26:04;101717.38;;;5.20;100.00
54248;BME280;40161;39.768;2.722;2023-03-04T01:28:29;101726.84;;;5.09;100.00
54248;BME280;40161;39.768;2.722;2023-03-04T01:31:00;101717.19;;;5.03;100.00
54248;BME280;40161;39.768;2.722;2023-03-04T01:33:26;101726.63;;;5.19;100.00
54248;BME280;40161;39.768;2.722;2023-03-04T01:35:51;101721.00;;;5.52;100.00
54248;BME280;40161;39.768;2.722;2023-03-04T01:38:17;101716.19;;;5.49;100.00
54248;BME280;40161;39.768;2.722;2023-03-04T01:40:42;101725.31;;;5.31;100.00
54248;BME280;40161;39.768;2.722;2023-03-04T01:43:23;101717.97;;;5.17;100.00
54248;BME280;40161;39.768;2.722;2023-03-04T01:45:50;101713.53;;;5.08;100.00
54248;BME280;40161;39.768;2.722;2023-03-04T01:48:21;101711.16;;;5.06;100.00
54248;BME280;40161;39.768;2.722;2023-03-04T01:50:48;101693.59;;;4.98;100.00
54248;BME280;40161;39.768;2.722;2023-03-04T01:53:20;101697.53;;;5.06;100.00
54248;BME280;40161;39.768;2.722;2023-03-04T01:55:46;101701.53;;;5.09;100.00
54248;BME280;40161;39.768;2.722;2023-03-04T01:58:12;101685.34;;;5.04;100.00
54248;BME280;40161;39.768;2.722;2023-03-04T02:00:38;101706.56;;;5.15;100.00
54248;BME280;40161;39.768;2.722;2023-03-04T02:03:07;101692.00;;;4.97;100.00
54248;BME280;40161;39.768;2.722;2023-03-04T02:05:38;101695.03;;;4.96;100.00
54248;BME280;40161;39.768;2.722;2023-03-04T02:08:06;101684.84;;;4.88;100.00
54248;BME280;40161;39.768;2.722;2023-03-04T02:10:32;101692.69;;;5.17;100.00
54248;BME280;40161;39.768;2.722;2023-03-04T02:12:59;101649.88;;;4.95;100.00
54248;BME280;40161;39.768;2.722;2023-03-04T02:15:26;101674.63;;;5.21;100.00
54248;BME280;40161;39.768;2.722;2023-03-04T02:17:52;101683.81;;;5.47;100.00
54248;BME280;40161;39.768;2.722;2023-03-04T02:20:41;101694.66;;;5.25;100.00
54248;BME280;40161;39.768;2.722;2023-03-04T02:26:08;101674.69;;;5.30;100.00
54248;BME280;40161;39.768;2.722;2023-03-04T02:28:33;101640.50;;;5.01;100.00
54248;BME280;40161;39.768;2.722;2023-03-04T02:30:59;101672.66;;;5.35;100.00
54248;BME280;40161;39.768;2.722;2023-03-04T02:33:25;101675.72;;;5.56;100.00
54248;BME280;40161;39.768;2.722;2023-03-04T02:35:50;101665.81;;;5.60;100.00
54248;BME280;40161;39.768;2.722;2023-03-04T02:38:16;101673.59;;;5.53;100.00
54248;BME280;40161;39.768;2.722;2023-03-04T02:40:45;101625.09;;;4.96;100.00
54248;BME280;40161;39.768;2.722;2023-03-04T02:43:13;101656.41;;;5.08;100.00
54248;BME280;40161;39.768;2.722;2023-03-04T02:48:10;101620.53;;;5.06;100.00
54248;BME280;40161;39.768;2.722;2023-03-04T02:50:45;101658.94;;;5.40;100.00
54248;BME280;40161;39.768;2.722;2023-03-04T02:53:11;101640.66;;;5.18;100.00
54248;BME280;40161;39.768;2.722;2023-03-04T02:55:37;101644.59;;;5.12;100.00
54248;BME280;40161;39.768;2.722;2023-03-04T02:58:03;101650.31;;;5.24;100.00
54248;BME280;40161;39.768;2.722;2023-03-04T03:00:29;101605.75;;;4.98;100.00
54248;BME280;40161;39.768;2.722;2023-03-04T03:02:55;101646.81;;;5.46;100.00
54248;BME280;40161;39.768;2.722;2023-03-04T03:05:26;101596.50;;;4.99;100.00
54248;BME280;40161;39.768;2.722;2023-03-04T03:07:52;101640.47;;;5.15;100.00
54248;BME280;40161;39.768;2.722;2023-03-04T03:10:18;101602.59;;;5.05;100.00
54248;BME280;40161;39.768;2.722;2023-03-04T03:12:43;101630.09;;;5.39;100.00
54248;BME280;40161;39.768;2.722;2023-03-04T03:15:09;101634.69;;;5.53;100.00
54248;BME280;40161;39.768;2.722;2023-03-04T03:17:35;101628.72;;;5.28;100.00
54248;BME280;40161;39.768;2.722;2023-03-04T03:20:00;101630.16;;;5.26;100.00
54248;BME280;40161;39.768;2.722;2023-03-04T03:22:26;101638.69;;;5.33;100.00
54248;BME280;40161;39.768;2.722;2023-03-04T03:24:51;101637.84;;;5.23;100.00
54248;BME280;40161;39.768;2.722;2023-03-04T03:27:17;101647.22;;;5.17;100.00
54248;BME280;40161;39.768;2.722;2023-03-04T03:29:42;101633.53;;;5.09;100.00
54248;BME280;40161;39.768;2.722;2023-03-04T03:32:08;101638.88;;;5.14;100.00
54248;BME280;40161;39.768;2.722;2023-03-04T03:34:34;101623.22;;;5.19;100.00
54248;BME280;40161;39.768;2.722;2023-03-04T03:36:59;101634.88;;;5.34;100.00
54248;BME280;40161;39.768;2.722;2023-03-04T03:39:25;101635.81;;;5.15;100.00
54248;BME280;40161;39.768;2.722;2023-03-04T03:41:50;101647.44;;;5.07;100.00
54248;BME280;40161;39.768;2.722;2023-03-04T03:44:16;101635.84;;;5.02;100.00
54248;BME280;40161;39.768;2.722;2023-03-04T03:46:41;101630.16;;;4.89;100.00
54248;BME280;40161;39.768;2.722;2023-03-04T03:49:07;101627.81;;;4.96;100.00
54248;BME280;40161;39.768;2.722;2023-03-04T03:51:32;101640.25;;;4.89;100.00
54248;BME280;40161;39.768;2.722;2023-03-04T03:53:58;101632.75;;;4.94;100.00
54248;BME280;40161;39.768;2.722;2023-03-04T03:56:24;101627.13;;;4.91;100.00
54248;BME280;40161;39.768;2.722;2023-03-04T03:58:49;101636.56;;;5.07;100.00
54248;BME280;40161;39.768;2.722;2023-03-04T04:01:15;101636.94;;;5.14;100.00
54248;BME280;40161;39.768;2.722;2023-03-04T04:03:40;101614.38;;;5.14;100.00
54248;BME280;40161;39.768;2.722;2023-03-04T04:06:06;101621.25;;;5.34;100.00
54248;BME280;40161;39.768;2.722;2023-03-04T04:08:31;101629.47;;;5.42;100.00
54248;BME280;40161;39.768;2.722;2023-03-04T04:10:57;101620.00;;;5.40;100.00
54248;BME280;40161;39.768;2.722;2023-03-04T04:13:23;101620.00;;;5.40;100.00
54248;BME280;40161;39.768;2.722;2023-03-04T04:15:50;101614.25;;;5.19;100.00
54248;BME280;40161;39.768;2.722;2023-03-04T04:18:16;101625.53;;;5.12;100.00
54248;BME280;40161;39.768;2.722;2023-03-04T04:20:41;101626.44;;;5.21;100.00
54248;BME280;40161;39.768;2.722;2023-03-04T04:23:07;101630.59;;;5.05;100.00
54248;BME280;40161;39.768;2.722;2023-03-04T04:25:32;101627.91;;;4.91;100.00
54248;BME280;40161;39.768;2.722;2023-03-04T04:27:58;101621.19;;;4.89;100.00
54248;BME280;40161;39.768;2.722;2023-03-04T04:30:24;101622.75;;;5.04;100.00
54248;BME280;40161;39.768;2.722;2023-03-04T04:32:49;101628.59;;;5.11;100.00
54248;BME280;40161;39.768;2.722;2023-03-04T04:35:15;101639.00;;;4.95;100.00
54248;BME280;40161;39.768;2.722;2023-03-04T04:37:41;101637.03;;;5.09;100.00
54248;BME280;40161;39.768;2.722;2023-03-04T04:40:07;101631.78;;;5.27;100.00
54248;BME280;40161;39.768;2.722;2023-03-04T04:42:32;101603.88;;;5.21;100.00
54248;BME280;40161;39.768;2.722;2023-03-04T04:44:58;101626.78;;;5.06;100.00
54248;BME280;40161;39.768;2.722;2023-03-04T04:47:23;101571.25;;;4.71;100.00
54248;BME280;40161;39.768;2.722;2023-03-04T04:49:49;101595.25;;;4.69;100.00
54248;BME280;40161;39.768;2.722;2023-03-04T04:52:14;101621.19;;;4.89;100.00
54248;BME280;40161;39.768;2.722;2023-03-04T04:54:40;101617.78;;;4.83;100.00
54248;BME280;40161;39.768;2.722;2023-03-04T04:57:05;101643.03;;;4.97;100.00
54248;BME280;40161;39.768;2.722;2023-03-04T04:59:31;101627.03;;;4.96;100.00
54248;BME280;40161;39.768;2.722;2023-03-04T05:01:56;101636.56;;;5.07;100.00
54248;BME280;40161;39.768;2.722;2023-03-04T05:04:22;101587.75;;;4.74;100.00
54248;BME280;40161;39.768;2.722;2023-03-04T05:06:47;101624.28;;;5.10;100.00
54248;BME280;40161;39.768;2.722;2023-03-04T05:09:13;101633.81;;;5.21;100.00
54248;BME280;40161;39.768;2.722;2023-03-04T05:11:38;101633.84;;;5.30;100.00
54248;BME280;40161;39.768;2.722;2023-03-04T05:14:04;101636.75;;;5.11;100.00
54248;BME280;40161;39.768;2.722;2023-03-04T05:16:30;101606.13;;;5.05;100.00
54248;BME280;40161;39.768;2.722;2023-03-04T05:18:55;101634.97;;;5.29;100.00
54248;BME280;40161;39.768;2.722;2023-03-04T05:21:21;101638.59;;;5.38;100.00
54248;BME280;40161;39.768;2.722;2023-03-04T05:23:46;101634.34;;;4.95;100.00
54248;BME280;40161;39.768;2.722;2023-03-04T05:26:14;101614.34;;;4.78;100.00
54248;BME280;40161;39.768;2.722;2023-03-04T05:28:40;101643.63;;;4.94;100.00
54248;BME280;40161;39.768;2.722;2023-03-04T05:31:06;101657.81;;;5.05;100.00
54248;BME280;40161;39.768;2.722;2023-03-04T05:33:32;101651.75;;;5.08;100.00
54248;BME280;40161;39.768;2.722;2023-03-04T05:35:57;101630.16;;;4.89;100.00
54248;BME280;40161;39.768;2.722;2023-03-04T05:38:23;101649.88;;;4.95;100.00
54248;BME280;40161;39.768;2.722;2023-03-04T05:40:56;101653.84;;;4.89;100.00
54248;BME280;40161;39.768;2.722;2023-03-04T05:43:23;101668.41;;;5.07;100.00
54248;BME280;40161;39.768;2.722;2023-03-04T05:45:48;101659.16;;;4.94;100.00
54248;BME280;40161;39.768;2.722;2023-03-04T05:48:14;101662.47;;;5.05;100.00
54248;BME280;40161;39.768;2.722;2023-03-04T05:50:39;101664.34;;;5.18;100.00
54248;BME280;40161;39.768;2.722;2023-03-04T05:53:05;101659.19;;;5.30;100.00
54248;BME280;40161;39.768;2.722;2023-03-04T05:55:31;101666.59;;;5.38;100.00
54248;BME280;40161;39.768;2.722;2023-03-04T05:57:57;101673.66;;;5.39;100.00
54248;BME280;40161;39.768;2.722;2023-03-04T06:00:23;101659.09;;;4.85;100.00
54248;BME280;40161;39.768;2.722;2023-03-04T06:02:49;101632.91;;;4.62;100.00
54248;BME280;40161;39.768;2.722;2023-03-04T06:05:15;101634.41;;;4.54;100.00
54248;BME280;40161;39.768;2.722;2023-03-04T06:07:41;101660.38;;;4.88;100.00
54248;BME280;40161;39.768;2.722;2023-03-04T06:10:08;101628.03;;;4.86;100.00
54248;BME280;40161;39.768;2.722;2023-03-04T06:12:34;101674.88;;;4.97;100.00
54248;BME280;40161;39.768;2.722;2023-03-04T06:15:00;101636.03;;;4.69;100.00
54248;BME280;40161;39.768;2.722;2023-03-04T06:17:27;101671.34;;;4.96;100.00
54248;BME280;40161;39.768;2.722;2023-03-04T06:19:53;101671.16;;;4.79;100.00
54248;BME280;40161;39.768;2.722;2023-03-04T06:22:18;101640.34;;;4.70;100.00
54248;BME280;40161;39.768;2.722;2023-03-04T06:24:44;101674.97;;;4.78;100.00
54248;BME280;40161;39.768;2.722;2023-03-04T06:27:10;101691.41;;;4.87;100.00
54248;BME280;40161;39.768;2.722;2023-03-04T06:29:35;101689.41;;;4.79;100.00
54248;BME280;40161;39.768;2.722;2023-03-04T06:32:01;101686.19;;;4.76;100.00
54248;BME280;40161;39.768;2.722;2023-03-04T06:34:26;101629.69;;;4.46;100.00
54248;BME280;40161;39.768;2.722;2023-03-04T06:36:54;101687.56;;;4.88;100.00
54248;BME280;40161;39.768;2.722;2023-03-04T06:39:19;101692.00;;;4.84;100.00
54248;BME280;40161;39.768;2.722;2023-03-04T06:41:45;101653.34;;;4.45;100.00
54248;BME280;40161;39.768;2.722;2023-03-04T06:44:10;101692.94;;;4.65;100.00
54248;BME280;40161;39.768;2.722;2023-03-04T06:46:36;101693.94;;;4.69;100.00
54248;BME280;40161;39.768;2.722;2023-03-04T06:49:03;101693.34;;;4.72;100.00
54248;BME280;40161;39.768;2.722;2023-03-04T06:51:29;101706.81;;;4.91;100.00
54248;BME280;40161;39.768;2.722;2023-03-04T06:53:55;101703.38;;;4.99;100.00
54248;BME280;40161;39.768;2.722;2023-03-04T06:56:20;101700.47;;;5.10;100.00
54248;BME280;40161;39.768;2.722;2023-03-04T06:58:46;101709.81;;;5.17;100.00
54248;BME280;40161;39.768;2.722;2023-03-04T07:01:21;101720.16;;;5.29;100.00
54248;BME280;40161;39.768;2.722;2023-03-04T07:03:48;101683.03;;;4.83;100.00
54248;BME280;40161;39.768;2.722;2023-03-04T07:06:16;101701.09;;;4.65;100.00
54248;BME280;40161;39.768;2.722;2023-03-04T07:08:43;101716.38;;;5.03;100.00
54248;BME280;40161;39.768;2.722;2023-03-04T07:11:09;101717.47;;;5.15;100.00
54248;BME280;40161;39.768;2.722;2023-03-04T07:13:35;101723.22;;;5.14;100.00
54248;BME280;40161;39.768;2.722;2023-03-04T07:16:07;101717.25;;;5.12;100.00
54248;BME280;40161;39.768;2.722;2023-03-04T07:18:33;101730.38;;;5.23;100.00
54248;BME280;40161;39.768;2.722;2023-03-04T07:20:58;101732.28;;;4.95;100.00
54248;BME280;40161;39.768;2.722;2023-03-04T07:23:24;101732.28;;;4.82;100.00
54248;BME280;40161;39.768;2.722;2023-03-04T07:25:49;101690.09;;;4.70;100.00
54248;BME280;40161;39.768;2.722;2023-03-04T07:28:17;101738.34;;;5.06;100.00
54248;BME280;40161;39.768;2.722;2023-03-04T07:30:42;101749.03;;;5.16;100.00
54248;BME280;40161;39.768;2.722;2023-03-04T07:33:08;101738.03;;;5.21;100.00
54248;BME280;40161;39.768;2.722;2023-03-04T07:35:33;101705.81;;;4.73;100.00
54248;BME280;40161;39.768;2.722;2023-03-04T07:37:59;101739.84;;;4.98;100.00
54248;BME280;40161;39.768;2.722;2023-03-04T07:40:25;101744.78;;;5.10;100.00
54248;BME280;40161;39.768;2.722;2023-03-04T07:42:51;101752.56;;;5.17;100.00
54248;BME280;40161;39.768;2.722;2023-03-04T07:45:17;101739.56;;;5.00;100.00
54248;BME280;40161;39.768;2.722;2023-03-04T07:47:44;101741.75;;;4.98;100.00
54248;BME280;40161;39.768;2.722;2023-03-04T07:50:10;101757.88;;;5.08;100.00
54248;BME280;40161;39.768;2.722;2023-03-04T07:52:45;101754.69;;;5.06;100.00
54248;BME280;40161;39.768;2.722;2023-03-04T07:55:13;101731.19;;;5.10;100.00
54248;BME280;40161;39.768;2.722;2023-03-04T07:57:40;101762.50;;;5.35;100.00
54248;BME280;40161;39.768;2.722;2023-03-04T08:00:07;101767.34;;;5.38;100.00
54248;BME280;40161;39.768;2.722;2023-03-04T08:02:32;101751.72;;;5.30;100.00
54248;BME280;40161;39.768;2.722;2023-03-04T08:04:58;101750.25;;;5.46;100.00
54248;BME280;40161;39.768;2.722;2023-03-04T08:07:23;101737.44;;;5.47;100.00
54248;BME280;40161;39.768;2.722;2023-03-04T08:09:49;101768.47;;;5.60;100.00
54248;BME280;40161;39.768;2.722;2023-03-04T08:12:14;101764.16;;;5.59;100.00
54248;BME280;40161;39.768;2.722;2023-03-04T08:14:40;101778.63;;;5.82;100.00
54248;BME280;40161;39.768;2.722;2023-03-04T08:17:06;101771.16;;;5.74;100.00
54248;BME280;40161;39.768;2.722;2023-03-04T08:19:31;101786.38;;;5.88;100.00
54248;BME280;40161;39.768;2.722;2023-03-04T08:21:57;101772.75;;;5.88;100.00
54248;BME280;40161;39.768;2.722;2023-03-04T08:24:22;101780.78;;;6.07;100.00
54248;BME280;40161;39.768;2.722;2023-03-04T08:26:49;101775.06;;;6.17;100.00
54248;BME280;40161;39.768;2.722;2023-03-04T08:29:17;101752.13;;;6.18;100.00
54248;BME280;40161;39.768;2.722;2023-03-04T08:31:44;101739.00;;;6.21;100.00
54248;BME280;40161;39.768;2.722;2023-03-04T08:34:11;101765.97;;;6.53;100.00
54248;BME280;40161;39.768;2.722;2023-03-04T08:36:40;101765.69;;;6.63;100.00
54248;BME280;40161;39.768;2.722;2023-03-04T08:39:07;101785.69;;;6.81;100.00
54248;BME280;40161;39.768;2.722;2023-03-04T08:41:34;101777.19;;;6.92;100.00
54248;BME280;40161;39.768;2.722;2023-03-04T08:44:00;101771.94;;;6.95;100.00
54248;BME280;40161;39.768;2.722;2023-03-04T08:46:26;101779.22;;;7.17;100.00
54248;BME280;40161;39.768;2.722;2023-03-04T08:48:52;101774.28;;;7.28;100.00
54248;BME280;40161;39.768;2.722;2023-03-04T08:51:17;101773.66;;;7.40;100.00
54248;BME280;40161;39.768;2.722;2023-03-04T08:53:44;101790.38;;;7.55;100.00
54248;BME280;40161;39.768;2.722;2023-03-04T08:56:13;101789.44;;;7.69;100.00
54248;BME280;40161;39.768;2.722;2023-03-04T08:58:41;101777.53;;;7.73;100.00
54248;BME280;40161;39.768;2.722;2023-03-04T09:01:09;101796.50;;;7.87;100.00
54248;BME280;40161;39.768;2.722;2023-03-04T09:03:35;101786.06;;;7.98;100.00
54248;BME280;40161;39.768;2.722;2023-03-04T09:06:02;101801.84;;;8.09;100.00
54248;BME280;40161;39.768;2.722;2023-03-04T09:08:28;101754.56;;;7.92;100.00
54248;BME280;40161;39.768;2.722;2023-03-04T09:10:54;101793.91;;;8.25;100.00
54248;BME280;40161;39.768;2.722;2023-03-04T09:13:21;101796.16;;;8.32;100.00
54248;BME280;40161;39.768;2.722;2023-03-04T09:15:49;101724.47;;;8.00;100.00
54248;BME280;40161;39.768;2.722;2023-03-04T09:18:19;101774.75;;;8.43;100.00
54248;BME280;40161;39.768;2.722;2023-03-04T09:20:45;101792.25;;;8.68;100.00
54248;BME280;40161;39.768;2.722;2023-03-04T09:23:12;101793.34;;;8.75;100.00
54248;BME280;40161;39.768;2.722;2023-03-04T09:25:38;101788.97;;;8.83;100.00
54248;BME280;40161;39.768;2.722;2023-03-04T09:28:04;101754.91;;;8.63;100.00
54248;BME280;40161;39.768;2.722;2023-03-04T09:30:30;101796.44;;;9.03;100.00
54248;BME280;40161;39.768;2.722;2023-03-04T09:32:55;101785.78;;;9.11;100.00
54248;BME280;40161;39.768;2.722;2023-03-04T09:35:22;101795.03;;;9.27;100.00
54248;BME280;40161;39.768;2.722;2023-03-04T09:37:47;101764.50;;;9.16;100.00
54248;BME280;40161;39.768;2.722;2023-03-04T09:40:22;101789.13;;;9.46;99.36
54248;BME280;40161;39.768;2.722;2023-03-04T09:42:55;101757.19;;;9.29;98.09
54248;BME280;40161;39.768;2.722;2023-03-04T09:45:26;101801.72;;;9.68;97.74
54248;BME280;40161;39.768;2.722;2023-03-04T09:47:54;101728.56;;;9.39;95.56
54248;BME280;40161;39.768;2.722;2023-03-04T09:50:21;101801.84;;;9.92;95.43
54248;BME280;40161;39.768;2.722;2023-03-04T09:55:22;101804.09;;;10.11;95.60
54248;BME280;40161;39.768;2.722;2023-03-04T09:58:02;101801.59;;;10.18;94.71
54248;BME280;40161;39.768;2.722;2023-03-04T10:00:38;101803.97;;;10.29;93.08
54248;BME280;40161;39.768;2.722;2023-03-04T10:05:43;101789.50;;;10.53;89.33
54248;BME280;40161;39.768;2.722;2023-03-04T10:08:28;101792.75;;;10.67;89.37
54248;BME280;40161;39.768;2.722;2023-03-04T10:10:57;101765.50;;;10.50;90.04
54248;BME280;40161;39.768;2.722;2023-03-04T10:13:43;101800.69;;;10.81;89.90
54248;BME280;40161;39.768;2.722;2023-03-04T10:16:18;101794.63;;;10.87;90.39
54248;BME280;40161;39.768;2.722;2023-03-04T10:19:18;101786.84;;;10.89;89.00
54248;BME280;40161;39.768;2.722;2023-03-04T10:21:45;101783.88;;;10.95;85.07
54248;BME280;40161;39.768;2.722;2023-03-04T10:24:17;101789.47;;;11.10;85.62
54248;BME280;40161;39.768;2.722;2023-03-04T10:26:47;101751.59;;;10.91;83.98
54248;BME280;40161;39.768;2.722;2023-03-04T10:29:17;101799.22;;;11.32;84.22
54248;BME280;40161;39.768;2.722;2023-03-04T10:31:43;101795.31;;;11.33;83.96
54248;BME280;40161;39.768;2.722;2023-03-04T10:34:12;101794.63;;;11.36;84.34
54248;BME280;40161;39.768;2.722;2023-03-04T10:42:02;101778.56;;;11.38;80.63
54248;BME280;40161;39.768;2.722;2023-03-04T10:44:28;101800.28;;;11.56;81.78
54248;BME280;40161;39.768;2.722;2023-03-04T10:46:56;101758.78;;;11.33;81.60
54248;BME280;40161;39.768;2.722;2023-03-04T10:49:23;101808.28;;;11.73;82.13
54248;BME280;40161;39.768;2.722;2023-03-04T10:52:14;101778.78;;;11.58;80.77
54248;BME280;40161;39.768;2.722;2023-03-04T10:54:59;101809.63;;;11.79;80.18
54248;BME280;40161;39.768;2.722;2023-03-04T10:57:34;101818.34;;;11.81;80.14
54248;BME280;40161;39.768;2.722;2023-03-04T11:02:44;101813.78;;;11.85;79.53
54248;BME280;40161;39.768;2.722;2023-03-04T11:07:50;101814.34;;;11.91;80.00
54248;BME280;40161;39.768;2.722;2023-03-04T11:10:17;101824.66;;;11.94;78.98
54248;BME280;40161;39.768;2.722;2023-03-04T11:13:32;101812.72;;;11.90;78.79
54248;BME280;40161;39.768;2.722;2023-03-04T11:15:48;101766.94;;;11.70;79.41
54248;BME280;40161;39.768;2.722;2023-03-04T11:18:15;101782.41;;;11.74;77.99
54248;BME280;40161;39.768;2.722;2023-03-04T11:20:44;101806.91;;;11.92;78.56
54248;BME280;40161;39.768;2.722;2023-03-04T11:23:18;101799.09;;;11.81;78.73
54248;BME280;40161;39.768;2.722;2023-03-04T11:25:51;101778.97;;;11.65;78.15
54248;BME280;40161;39.768;2.722;2023-03-04T11:28:28;101800.50;;;11.87;79.17
54248;BME280;40161;39.768;2.722;2023-03-04T11:31:02;101757.25;;;11.60;78.23
54248;BME280;40161;39.768;2.722;2023-03-04T11:34:02;101800.50;;;11.87;77.48
54248;BME280;40161;39.768;2.722;2023-03-04T11:36:53;101791.56;;;11.91;77.49
54248;BME280;40161;39.768;2.722;2023-03-04T11:39:26;101790.22;;;12.00;78.48
54248;BME280;40161;39.768;2.722;2023-03-04T11:42:04;101790.00;;;12.05;76.83
54248;BME280;40161;39.768;2.722;2023-03-04T11:44:33;101781.47;;;12.10;74.89
54248;BME280;40161;39.768;2.722;2023-03-04T11:58:20;101761.84;;;12.40;75.26
54248;BME280;40161;39.768;2.722;2023-03-04T12:06:16;101748.72;;;12.49;73.30
54248;BME280;40161;39.768;2.722;2023-03-04T12:14:36;101733.06;;;12.69;74.53
54248;BME280;40161;39.768;2.722;2023-03-04T12:30:58;101727.03;;;12.79;73.49
54248;BME280;40161;39.768;2.722;2023-03-04T12:36:40;101720.81;;;12.82;72.36
54248;BME280;40161;39.768;2.722;2023-03-04T12:42:33;101711.19;;;12.92;71.82
54248;BME280;40161;39.768;2.722;2023-03-04T12:50:52;101668.06;;;12.65;71.65
54248;BME280;40161;39.768;2.722;2023-03-04T12:56:05;101695.84;;;12.91;69.96
54248;BME280;40161;39.768;2.722;2023-03-04T12:58:32;101689.53;;;12.91;70.45
54248;BME280;40161;39.768;2.722;2023-03-04T13:01:11;101690.25;;;12.88;69.45
54248;BME280;40161;39.768;2.722;2023-03-04T13:06:45;101687.53;;;13.07;70.73
54248;BME280;40161;39.768;2.722;2023-03-04T13:09:29;101684.03;;;13.10;68.90
54248;BME280;40161;39.768;2.722;2023-03-04T13:14:38;101679.41;;;13.14;67.81
54248;BME280;40161;39.768;2.722;2023-03-04T13:20:35;101674.41;;;13.20;68.25
54248;BME280;40161;39.768;2.722;2023-03-04T13:23:03;101680.72;;;13.20;67.35
54248;BME280;40161;39.768;2.722;2023-03-04T13:28:36;101669.28;;;13.18;68.30
54248;BME280;40161;39.768;2.722;2023-03-04T13:31:06;101668.56;;;13.21;66.39
54248;BME280;40161;39.768;2.722;2023-03-04T13:53:54;101645.19;;;13.15;65.42
54248;BME280;40161;39.768;2.722;2023-03-04T13:59:00;101636.13;;;13.15;65.34
54248;BME280;40161;39.768;2.722;2023-03-04T14:04:32;101647.94;;;13.15;64.67
54248;BME280;40161;39.768;2.722;2023-03-04T14:07:01;101642.44;;;13.15;65.16
54248;BME280;40161;39.768;2.722;2023-03-04T14:09:32;101606.97;;;12.94;64.97
54248;BME280;40161;39.768;2.722;2023-03-04T14:12:03;101623.34;;;13.06;63.84
54248;BME280;40161;39.768;2.722;2023-03-04T14:14:55;101637.72;;;13.16;64.38
54248;BME280;40161;39.768;2.722;2023-03-04T14:17:25;101593.81;;;12.88;65.75
54248;BME280;40161;39.768;2.722;2023-03-04T14:19:51;101615.56;;;12.93;65.71
54248;BME280;40161;39.768;2.722;2023-03-04T14:22:32;101594.78;;;12.95;65.99
54248;BME280;40161;39.768;2.722;2023-03-04T14:25:02;101633.16;;;13.23;66.74
54248;BME280;40161;39.768;2.722;2023-03-04T14:27:29;101588.16;;;13.00;66.07
54248;BME280;40161;39.768;2.722;2023-03-04T14:29:59;101615.75;;;13.19;65.25
54248;BME280;40161;39.768;2.722;2023-03-04T14:32:26;101622.06;;;13.20;65.75
54248;BME280;40161;39.768;2.722;2023-03-04T14:34:58;101606.97;;;13.14;64.89
54248;BME280;40161;39.768;2.722;2023-03-04T14:37:36;101612.06;;;13.12;64.07
54248;BME280;40161;39.768;2.722;2023-03-04T14:40:09;101611.59;;;13.10;65.83
54248;BME280;40161;39.768;2.722;2023-03-04T14:42:43;101566.19;;;12.84;66.23
54248;BME280;40161;39.768;2.722;2023-03-04T14:45:15;101606.41;;;13.04;65.49